Kezdőlap
METAR-TAF:

METAR-TAF

Repülőterek :

Orenburg, Oroszország

földrajzi szélesség: 51-46-48N, földrajzi hosszúság: 055-07-12E, magasság: 109 m

Jelenlegi meteorológiai megfigyelések

A jelentés 26 perccel ezelõtt készült, 23:00 UTC
Nyugati szél 4 kt
Hőmérséklet -3°C
Páratartalom 86%
Légköri nyomás 1042 hPa
Látótávolság 10 km, vagy több
Borult 2100 lábon

METAR: UWOO 152300Z 26002MPS 9999 OVC021 M03/M05 Q1042 R08/60D NOSIG RMK QFE770/1027

Idő: 04:26 (23:26 UTC)

Előrejelzés

A jelentés 3 órával és 33 perccel ezelõtt készült, 19:53 UTC
Az előrejelzés 15-én 21 óra UTC és 16-én 21 óra UTC között érvényes
Nyugat-délnyugati szél 6 kt széllökések: 16 kt
Látótávolság 10 km, vagy több
Szakadozott felhőzet 1100 lábon
15-én 21 óra UTC és 16-én 05 óra UTC között ideiglenes
Nyugati szél 6 kt
Látótávolság: 0300 m
200 lábon
zúzmarás köd

TAF: UWOO 151953Z 1521/1621 25003G08MPS 9999 BKN011 TX02/1612Z TNM05/1603Z TEMPO 1521/1605 28003MPS 0300 FZFG VV002

Meteorológiai megfigyelések és előrejelzések több, mint 4000 repülőtéren (METAR és TAF jelentéseket).

A térképen piros és sárga pontok jelzik az elérhető meteorológiai állomásokat.

Mozgassa az egeret a pont fölött, hogy megjelenjen az állomás neve.

Azután kattintson az időjárási megfigyelések és előrejelzések megtekintéséhez.

A térkép megváltoztatása: kattintson a fekete keresztel jelölt zöld gombra ráközelítéshez, a vonallal jelölt zöld gombra távolításhoz, vagy a zöld nyilakra a szomszédos térképek eléréséhez.


METAR-TAF: